createdAt,value
2018-12-10T06:23:01.341Z,0.1
2018-12-10T06:25:01.071Z,0.2
2018-12-10T06:26:06.066Z,0.3
2018-12-10T06:29:01.058Z,0.4
2018-12-10T06:30:01.055Z,0.5
2018-12-10T06:32:01.084Z,0.7
2018-12-10T06:33:01.226Z,0.8
2018-12-10T06:34:01.101Z,0.9
2018-12-10T06:35:01.083Z,1.1
2018-12-10T06:36:01.087Z,1.3
2018-12-10T06:37:01.054Z,1.5
2018-12-10T06:38:01.224Z,1.7
2018-12-10T06:39:01.087Z,1.9
2018-12-10T06:40:01.101Z,2.1
2018-12-10T06:41:01.053Z,2.3
2018-12-10T06:42:01.084Z,2.7
2018-12-10T06:43:01.254Z,3.1
2018-12-10T06:44:01.060Z,3.5
2018-12-10T06:45:01.057Z,4.1
2018-12-10T06:46:01.094Z,4.7
2018-12-10T06:47:01.094Z,5.5
2018-12-10T06:48:01.196Z,6.6
2018-12-10T06:49:01.056Z,7.5
2018-12-10T06:50:01.057Z,8.5
2018-12-10T06:51:06.095Z,9.5
2018-12-10T06:52:01.061Z,11.0
2018-12-10T06:53:01.200Z,12.8
2018-12-10T06:54:01.059Z,14.9
2018-12-10T06:55:06.102Z,17.6
2018-12-10T06:56:02.151Z,20.7
2018-12-10T06:57:01.091Z,24.3
2018-12-10T06:58:01.230Z,28.9
2018-12-10T06:59:01.059Z,34.4
2018-12-10T07:00:06.058Z,40.5
2018-12-10T07:01:01.094Z,47.5
2018-12-10T07:02:01.065Z,56.2
2018-12-10T07:03:01.263Z,65.7
2018-12-10T07:04:01.099Z,74.1
2018-12-10T07:05:06.103Z,80.5
2018-12-10T07:06:01.096Z,84.5
2018-12-10T07:07:01.098Z,88.3
2018-12-10T07:08:01.236Z,91.2
2018-12-10T07:09:01.418Z,92.9
2018-12-10T07:10:06.106Z,93.3
2018-12-10T07:11:01.065Z,93.5
2018-12-10T07:13:01.244Z,95.2
2018-12-10T07:14:01.063Z,100.1
2018-12-10T07:15:06.066Z,109.7
2018-12-10T07:16:01.061Z,122.3
2018-12-10T07:17:01.096Z,143.1
2018-12-10T07:18:01.207Z,174.1
2018-12-10T07:19:01.066Z,215.2
2018-12-10T07:20:01.094Z,267.3
2018-12-10T07:21:01.176Z,331.3
2018-12-10T07:22:01.095Z,405.3
2018-12-10T07:24:01.079Z,499.7
2018-12-10T07:25:01.105Z,606.1
2018-12-10T07:26:02.016Z,721.6
2018-12-10T07:27:01.049Z,833.5
2018-12-10T07:28:01.200Z,954.9
2018-12-10T07:29:01.072Z,1091.3
2018-12-10T07:30:01.080Z,1245.5
2018-12-10T07:31:01.048Z,1395.7
2018-12-10T07:32:01.086Z,1546.8
2018-12-10T07:33:01.221Z,1643.1
2018-12-10T07:34:01.115Z,1697.7
2018-12-10T07:35:01.081Z,1731.7
2018-12-10T07:36:01.048Z,1741.4
2018-12-10T07:37:01.080Z,1730.2
2018-12-10T07:38:01.226Z,1703.3
2018-12-10T07:39:01.112Z,1665.7
2018-12-10T07:40:01.050Z,1646.9
2018-12-10T07:41:01.054Z,1664.5
2018-12-10T07:42:01.081Z,1730.7
2018-12-10T07:43:01.229Z,1801.4
2018-12-10T07:44:06.055Z,1838.5
2018-12-10T07:45:01.082Z,1832.9
2018-12-10T07:46:01.048Z,1829.1
2018-12-10T07:47:01.085Z,1824.7
2018-12-10T07:48:01.226Z,1860.7
2018-12-10T07:49:01.084Z,1986.3
2018-12-10T07:50:01.050Z,2126.9
2018-12-10T07:51:01.050Z,2297.0
2018-12-10T07:52:01.079Z,2478.6
2018-12-10T07:53:01.230Z,2717.3
2018-12-10T07:54:01.082Z,2995.2
2018-12-10T07:55:01.647Z,3279.9
2018-12-10T07:56:01.079Z,3574.9
2018-12-10T07:57:01.085Z,3872.9
2018-12-10T07:58:01.229Z,4213.0
2018-12-10T07:59:01.089Z,4628.0
2018-12-10T08:00:01.049Z,5168.3
2018-12-10T08:01:01.093Z,5800.1
2018-12-10T08:02:01.087Z,6473.8
2018-12-10T08:03:01.214Z,7205.5
2018-12-10T08:04:01.083Z,7981.5
2018-12-10T08:05:12.216Z,8817.6
2018-12-10T08:06:01.081Z,9598.1
2018-12-10T08:07:01.084Z,10273.1
2018-12-10T08:08:01.203Z,10791.7
2018-12-10T08:09:01.085Z,11200.1
2018-12-10T08:10:06.100Z,11542.4
2018-12-10T08:11:01.085Z,11825.1
2018-12-10T08:12:01.054Z,12065.0
2018-12-10T08:13:01.257Z,12259.7
2018-12-10T08:14:01.086Z,12410.1
2018-12-10T08:15:06.056Z,12470.8
2018-12-10T08:16:02.197Z,12453.4
2018-12-10T08:17:01.058Z,12424.3
2018-12-10T08:18:01.200Z,12301.6
2018-12-10T08:19:01.054Z,12020.3
2018-12-10T08:20:06.171Z,11658.3
2018-12-10T08:21:02.355Z,11353.8
2018-12-10T08:22:01.086Z,11216.0
2018-12-10T08:23:01.197Z,11181.0
2018-12-10T08:24:01.190Z,11293.9
2018-12-10T08:25:06.056Z,11367.0
2018-12-10T08:26:01.090Z,11567.5
2018-12-10T08:27:01.091Z,11825.8
2018-12-10T08:28:01.237Z,12106.1
2018-12-10T08:29:07.372Z,12526.8
2018-12-10T08:30:06.099Z,13083.7
2018-12-10T08:31:01.064Z,13810.7
2018-12-10T08:32:01.247Z,14568.0
2018-12-10T08:33:01.209Z,15365.3
2018-12-10T08:34:01.095Z,16166.1
2018-12-10T08:35:06.064Z,16944.4
2018-12-10T08:36:01.094Z,17618.1
2018-12-10T08:37:01.062Z,18307.0
2018-12-10T08:38:01.236Z,19246.8
2018-12-10T08:39:01.094Z,20297.3
2018-12-10T08:41:01.192Z,21212.9
2018-12-10T08:42:01.079Z,21902.4
2018-12-10T08:43:01.222Z,22391.0
2018-12-10T08:44:01.049Z,22789.7
2018-12-10T08:45:01.078Z,23031.0
2018-12-10T08:46:01.081Z,23185.5
2018-12-10T08:47:01.082Z,23251.3
2018-12-10T08:48:01.224Z,23328.3
2018-12-10T08:49:01.051Z,23474.1
2018-12-10T08:50:01.195Z,23960.3
2018-12-10T08:51:01.218Z,24645.3
2018-12-10T08:52:01.089Z,25554.7
2018-12-10T08:53:01.191Z,26692.9
2018-12-10T08:54:01.088Z,27419.9
2018-12-10T08:55:06.061Z,27861.9
2018-12-10T08:56:01.055Z,28733.7
2018-12-10T08:57:01.098Z,29879.6
2018-12-10T08:58:01.204Z,31147.3
2018-12-10T08:59:01.096Z,32115.9
2018-12-10T09:00:01.121Z,32483.1
2018-12-10T09:01:01.088Z,32971.9
2018-12-10T09:02:01.056Z,34266.3
2018-12-10T09:03:01.365Z,35474.7
2018-12-10T09:04:01.087Z,36275.9
2018-12-10T09:05:01.095Z,36485.3
2018-12-10T09:06:01.089Z,37223.8
2018-12-10T09:07:01.092Z,38139.1
2018-12-10T09:08:01.563Z,38055.2
2018-12-10T09:09:01.097Z,37813.4
2018-12-10T09:10:01.169Z,37336.9
2018-12-10T09:11:01.077Z,36271.3
2018-12-10T09:12:01.061Z,35016.3
2018-12-10T09:13:01.207Z,33844.0
2018-12-10T09:14:01.099Z,33217.1
2018-12-10T09:15:06.102Z,33299.2
2018-12-10T09:16:01.061Z,33246.9
2018-12-10T09:17:01.067Z,32489.2
2018-12-10T09:18:01.204Z,31889.4
2018-12-10T09:19:01.664Z,32148.0
2018-12-10T09:20:06.102Z,33164.4
2018-12-10T09:21:01.102Z,33672.6
2018-12-10T09:23:01.186Z,34119.8
2018-12-10T09:24:01.081Z,35204.7
2018-12-10T09:25:01.082Z,36592.9
2018-12-10T09:26:06.051Z,38840.7
2018-12-10T09:27:01.082Z,41665.1
2018-12-10T09:28:01.195Z,44224.1
2018-12-10T09:29:01.054Z,46693.1
2018-12-10T09:30:01.083Z,49310.2
2018-12-10T09:31:06.054Z,51822.3
2018-12-10T09:32:01.089Z,54282.9
2018-12-10T09:33:01.189Z,56545.3
2018-12-10T09:34:01.082Z,58659.9
2018-12-10T09:35:06.049Z,60254.3
2018-12-10T09:36:01.108Z,60686.2
2018-12-10T09:37:01.081Z,60781.4
2018-12-10T09:38:01.269Z,59270.5
2018-12-10T09:39:01.053Z,57438.7
2018-12-10T09:40:01.052Z,55382.1
2018-12-10T09:41:06.096Z,52746.2
2018-12-10T09:42:01.090Z,49999.8
2018-12-10T09:43:01.198Z,48099.3
2018-12-10T09:44:01.052Z,46360.1
2018-12-10T09:45:01.057Z,44436.8
2018-12-10T09:46:01.122Z,42866.5
2018-12-10T09:47:01.087Z,41478.1
2018-12-10T09:48:01.230Z,40098.2
2018-12-10T09:49:06.119Z,38652.8
2018-12-10T09:50:02.337Z,37474.9
2018-12-10T09:51:01.086Z,37153.4
2018-12-10T09:52:01.089Z,37281.7
2018-12-10T09:53:01.225Z,38703.9
2018-12-10T09:54:06.084Z,40558.3
2018-12-10T09:55:01.061Z,42599.1
2018-12-10T09:56:01.095Z,44764.5
2018-12-10T09:57:01.061Z,46770.6
2018-12-10T09:58:01.248Z,48518.9
2018-12-10T09:59:06.096Z,50249.0
2018-12-10T10:00:01.090Z,51847.3
2018-12-10T10:01:01.092Z,53417.6
2018-12-10T10:02:12.209Z,54806.0
2018-12-10T10:03:01.232Z,56185.9
2018-12-10T10:04:01.091Z,57631.3
2018-12-10T10:05:01.059Z,58809.3
2018-12-10T10:06:01.090Z,59838.3
2018-12-10T10:07:06.090Z,60574.6
2018-12-10T10:08:01.233Z,61371.3
2018-12-10T10:09:01.098Z,62112.6
2018-12-10T10:10:01.093Z,62909.4
2018-12-10T10:11:01.094Z,63624.3
2018-12-10T10:12:01.093Z,64395.7
2018-12-10T10:13:01.204Z,64862.8
2018-12-10T10:14:01.057Z,65210.1
2018-12-10T10:15:01.182Z,65535.0
2018-12-10T10:27:01.242Z,64305.9
2018-12-10T10:28:06.104Z,61175.4
2018-12-10T10:29:01.066Z,57737.3
2018-12-10T10:30:01.097Z,54165.9
2018-12-10T10:31:01.097Z,50505.3
2018-12-10T10:32:01.240Z,46759.5
2018-12-10T10:33:06.071Z,42911.3
2018-12-10T10:34:01.065Z,39011.2
2018-12-10T10:35:01.107Z,35055.8
2018-12-10T10:36:01.102Z,31076.1
2018-12-10T10:37:01.308Z,27062.1
2018-12-10T10:38:06.081Z,23013.9
2018-12-10T10:39:01.100Z,19181.5
2018-12-10T10:40:01.101Z,15649.9
2018-12-10T10:41:01.068Z,12530.1
2018-12-10T10:43:01.223Z,10526.7
2018-12-10T10:44:02.031Z,10566.7
2018-12-10T10:45:01.054Z,10913.8
2018-12-10T10:46:01.056Z,11336.7
2018-12-10T10:47:01.087Z,11984.1
2018-12-10T10:48:01.227Z,12986.1
2018-12-10T10:49:01.096Z,14364.5
2018-12-10T10:50:01.060Z,16229.6
2018-12-10T10:51:01.091Z,19393.3
2018-12-10T10:52:01.064Z,23373.1
2018-12-10T10:53:01.271Z,27387.1
2018-12-10T10:54:01.056Z,31435.3
2018-12-10T10:55:01.089Z,35267.6
2018-12-10T10:56:01.057Z,37355.3
2018-12-10T10:57:01.089Z,37370.9
2018-12-10T10:58:01.301Z,36898.3
2018-12-10T10:59:01.059Z,35969.3
2018-12-10T11:00:01.060Z,34964.1
2018-12-10T11:01:01.061Z,34302.1
2018-12-10T11:02:01.916Z,33755.2
2018-12-10T11:03:01.273Z,33049.8
2018-12-10T11:04:01.092Z,32247.6
2018-12-10T11:05:01.060Z,31280.6
2018-12-10T11:06:01.095Z,29249.0
2018-12-10T11:07:01.066Z,26632.8
2018-12-10T11:08:01.240Z,24105.4
2018-12-10T11:09:01.100Z,21722.2
2018-12-10T11:10:01.110Z,19199.5
2018-12-10T11:11:01.065Z,17857.9
2018-12-10T11:12:01.101Z,18274.2
2018-12-10T11:13:01.290Z,19460.3
2018-12-10T11:14:01.189Z,21414.5
2018-12-10T11:16:01.053Z,24006.2
2018-12-10T11:17:01.055Z,26088.5
2018-12-10T11:18:01.229Z,28194.5
2018-12-10T11:19:01.976Z,31235.2
2018-12-10T11:20:01.060Z,33467.7
2018-12-10T11:21:01.056Z,36469.7
2018-12-10T11:22:01.086Z,39293.0
2018-12-10T11:23:01.231Z,41909.2
2018-12-10T11:24:01.057Z,43674.0
2018-12-10T11:25:01.061Z,45189.5
2018-12-10T11:26:01.062Z,46479.1
2018-12-10T11:27:01.056Z,48203.2
2018-12-10T11:28:01.268Z,50891.1
2018-12-10T11:29:01.056Z,53410.2
2018-12-10T11:30:01.096Z,55475.5
2018-12-10T11:31:06.062Z,56677.2
2018-12-10T11:32:01.069Z,58405.3
2018-12-10T11:33:01.232Z,59732.1
2018-12-10T11:34:01.060Z,60140.5
2018-12-10T11:35:01.093Z,61180.0
2018-12-10T11:37:01.059Z,60564.3
2018-12-10T11:38:01.296Z,59324.7
2018-12-10T11:39:01.116Z,58861.6
2018-12-10T11:40:01.143Z,58301.1
2018-12-10T11:41:01.061Z,57709.1
2018-12-10T11:42:01.097Z,56758.4
2018-12-10T11:43:01.240Z,54181.7
2018-12-10T11:44:01.121Z,51296.1
2018-12-10T11:45:01.895Z,48372.6
2018-12-10T11:46:01.071Z,45571.3
2018-12-10T11:47:01.097Z,42381.7
2018-12-10T11:48:01.236Z,39407.7
2018-12-10T11:49:01.065Z,36485.3
2018-12-10T11:50:01.098Z,33446.8
2018-12-10T11:51:01.100Z,30439.1
2018-12-10T11:52:01.064Z,28240.0
2018-12-10T11:53:01.337Z,26671.1
2018-12-10T11:54:01.097Z,25233.2
2018-12-10T11:55:01.103Z,24542.5
2018-12-10T11:56:01.065Z,26367.7
2018-12-10T11:57:01.064Z,28379.7
2018-12-10T11:58:01.274Z,30956.5
2018-12-10T11:59:01.101Z,33842.1
2018-12-10T12:00:01.073Z,36208.9
2018-12-10T12:01:01.100Z,38951.5
2018-12-10T12:02:01.097Z,42141.1
2018-12-10T12:03:01.211Z,45022.4
2018-12-10T12:04:01.104Z,47944.8
2018-12-10T12:06:01.096Z,50677.1
2018-12-10T12:07:01.083Z,52791.0
2018-12-10T12:08:01.246Z,55019.4
2018-12-10T12:09:01.046Z,57827.5
2018-12-10T12:10:01.086Z,59969.9
2018-12-10T12:11:01.051Z,61865.3
2018-12-10T12:12:01.083Z,61763.7
2018-12-10T12:13:01.254Z,60194.7
2018-12-10T12:15:06.061Z,59620.8
2018-12-10T12:16:01.090Z,59520.3
2018-12-10T12:17:01.081Z,59881.9
2018-12-10T12:18:01.227Z,59414.8
2018-12-10T12:19:01.049Z,59634.8
2018-12-10T12:21:01.209Z,58568.9
2018-12-10T12:22:05.026Z,57384.9
2018-12-10T12:23:02.261Z,55461.7
2018-12-10T12:24:01.051Z,52995.3
2018-12-10T12:25:01.081Z,51523.0
2018-12-10T12:26:01.107Z,51746.4
2018-12-10T12:27:01.824Z,51848.1
2018-12-10T12:28:01.196Z,53417.1
2018-12-10T12:30:01.091Z,53051.6
2018-12-10T12:31:06.057Z,52512.4
2018-12-10T12:32:01.084Z,51588.1
2018-12-10T12:33:01.194Z,49504.0
2018-12-10T12:34:01.064Z,46593.4
2018-12-10T12:35:01.087Z,43459.9
2018-12-10T12:36:01.098Z,41569.8
2018-12-10T12:37:01.085Z,40372.6
2018-12-10T12:38:01.225Z,39650.4
2018-12-10T12:39:01.090Z,38868.7
2018-12-10T12:40:01.268Z,37666.8
2018-12-10T12:41:01.060Z,34510.7
2018-12-10T12:42:06.063Z,31390.2
2018-12-10T12:43:06.855Z,28308.9
2018-12-10T12:44:01.270Z,25271.7
2018-12-10T12:45:01.119Z,23218.7
2018-12-10T12:46:01.062Z,21460.3
2018-12-10T12:47:06.096Z,19482.7
2018-12-10T12:48:01.199Z,19213.4
2018-12-10T12:49:02.176Z,19391.5
2018-12-10T12:50:01.060Z,19847.1
2018-12-10T12:51:06.093Z,20601.9
2018-12-10T12:52:01.090Z,21894.9
2018-12-10T12:53:01.268Z,24411.7
2018-12-10T12:54:01.059Z,27023.7
2018-12-10T12:55:01.067Z,29835.3
2018-12-10T12:56:06.102Z,32991.4
2018-12-10T12:57:01.244Z,36111.9
2018-12-10T12:58:01.325Z,39193.1
2018-12-10T12:59:01.060Z,42230.4
2018-12-10T13:00:01.103Z,45222.5
2018-12-10T13:01:06.101Z,48177.3
2018-12-10T13:02:01.060Z,50835.5
2018-12-10T13:03:01.247Z,53656.1
2018-12-10T13:04:01.097Z,56388.6
2018-12-10T13:05:01.093Z,59066.5
2018-12-10T13:06:06.851Z,61573.9
2018-12-10T13:08:01.260Z,61278.3
2018-12-10T13:09:01.047Z,59466.4
2018-12-10T13:10:01.231Z,58065.3
2018-12-10T13:11:01.086Z,56784.3
2018-12-10T13:13:01.261Z,55549.5
2018-12-10T13:15:01.089Z,55549.5
2018-12-10T13:16:01.086Z,53386.3
2018-12-10T13:17:01.085Z,50987.7
2018-12-10T13:18:01.233Z,48879.1
2018-12-10T13:19:01.054Z,46649.7
2018-12-10T13:21:01.158Z,45246.6
2018-12-10T13:22:01.054Z,43323.9
2018-12-10T13:23:01.335Z,43870.5
2018-12-10T13:24:01.056Z,44840.7
2018-12-10T13:25:01.059Z,45275.8
2018-12-10T13:26:01.054Z,45425.7
2018-12-10T13:27:02.133Z,43448.7
2018-12-10T13:28:01.238Z,42691.3
2018-12-10T13:29:01.167Z,41206.1
2018-12-10T13:30:01.092Z,40175.9
2018-12-10T13:31:01.057Z,42042.9
2018-12-10T13:32:01.167Z,44189.3
2018-12-10T13:33:01.266Z,45603.6
2018-12-10T13:34:01.096Z,46759.3
2018-12-10T13:35:01.093Z,45351.1
2018-12-10T13:36:01.061Z,44969.7
2018-12-10T13:37:01.091Z,44676.2
2018-12-10T13:38:01.334Z,44032.4
2018-12-10T13:39:01.060Z,43245.9
2018-12-10T13:40:01.093Z,42520.3
2018-12-10T13:41:01.094Z,41797.5
2018-12-10T13:42:01.094Z,41773.1
2018-12-10T13:43:01.246Z,41989.8
2018-12-10T13:44:01.878Z,41604.7
2018-12-10T13:45:01.065Z,40646.7
2018-12-10T13:46:01.130Z,38812.3
2018-12-10T13:47:01.066Z,36918.5
2018-12-10T13:49:01.217Z,35638.2
2018-12-10T13:50:01.053Z,34406.5
2018-12-10T13:51:01.083Z,33468.1
2018-12-10T13:52:01.047Z,32887.7
2018-12-10T13:53:01.046Z,32699.1
2018-12-10T13:54:01.232Z,32601.1
2018-12-10T13:55:01.049Z,32367.4
2018-12-10T13:56:01.080Z,32052.9
2018-12-10T13:57:01.888Z,31553.8
2018-12-10T13:58:01.049Z,30719.9
2018-12-10T13:59:01.217Z,29588.6
2018-12-10T14:00:01.080Z,28478.2
2018-12-10T14:01:01.049Z,27498.3
2018-12-10T14:02:01.048Z,26585.6
2018-12-10T14:03:01.079Z,25597.0
2018-12-10T14:04:01.261Z,24623.8
2018-12-10T14:05:01.230Z,23687.9
2018-12-10T14:06:01.051Z,22755.4
2018-12-10T14:07:01.084Z,21786.7
2018-12-10T14:08:01.084Z,20833.4
2018-12-10T14:09:01.231Z,19877.7
2018-12-10T14:10:01.047Z,18995.3
2018-12-10T14:11:01.050Z,18183.8
2018-12-10T14:12:01.081Z,17456.7
2018-12-10T14:13:01.079Z,16815.5
2018-12-10T14:14:01.326Z,16239.5
2018-12-10T14:15:01.052Z,15738.2
2018-12-10T14:16:01.081Z,15223.9
2018-12-10T14:17:01.081Z,14782.5
2018-12-10T14:18:01.052Z,14444.3
2018-12-10T14:19:01.288Z,14153.3
2018-12-10T14:20:01.084Z,13902.8
2018-12-10T14:21:01.088Z,13699.3
2018-12-10T14:22:01.094Z,13631.8
2018-12-10T14:23:01.056Z,13624.1
2018-12-10T14:24:01.267Z,13638.3
2018-12-10T14:25:01.055Z,13678.7
2018-12-10T14:26:01.049Z,13688.8
2018-12-10T14:27:01.051Z,13621.1
2018-12-10T14:28:01.054Z,13494.6
2018-12-10T14:29:01.263Z,13449.2
2018-12-10T14:30:01.083Z,13420.3
2018-12-10T14:31:01.064Z,13364.1
2018-12-10T14:32:01.053Z,13263.3
2018-12-10T14:33:01.052Z,13135.7
2018-12-10T14:34:01.225Z,12972.5
2018-12-10T14:35:01.112Z,12723.6
2018-12-10T14:36:01.086Z,12408.0
2018-12-10T14:37:01.055Z,11979.7
2018-12-10T14:38:01.057Z,11486.8
2018-12-10T14:39:02.229Z,11006.1
2018-12-10T14:40:06.059Z,10495.1
2018-12-10T14:41:01.063Z,9965.3
2018-12-10T14:42:01.099Z,9464.3
2018-12-10T14:43:01.088Z,8982.7
2018-12-10T14:44:01.269Z,8425.1
2018-12-10T14:45:01.090Z,7859.1
2018-12-10T14:46:01.057Z,7284.7
2018-12-10T14:47:01.088Z,6694.1
2018-12-10T14:48:01.094Z,6101.1
2018-12-10T14:49:01.334Z,5546.7
2018-12-10T14:50:01.055Z,5083.9
2018-12-10T14:51:01.060Z,4688.5
2018-12-10T14:52:02.263Z,4328.3
2018-12-10T14:53:01.092Z,3994.0
2018-12-10T14:54:01.243Z,3699.8
2018-12-10T14:55:01.064Z,3446.2
2018-12-10T14:56:01.061Z,3226.5
2018-12-10T14:57:01.101Z,3058.3
2018-12-10T14:58:01.104Z,2932.4
2018-12-10T14:59:01.322Z,2798.1
2018-12-10T15:00:02.950Z,2644.7
2018-12-10T15:01:01.095Z,2519.8
2018-12-10T15:02:01.068Z,2448.0
2018-12-10T15:03:01.094Z,2385.2
2018-12-10T15:04:01.203Z,2319.5
2018-12-10T15:05:01.063Z,2245.6
2018-12-10T15:06:01.096Z,2153.3
2018-12-10T15:07:01.096Z,2048.7
2018-12-10T15:09:01.192Z,1927.5
2018-12-10T15:10:01.079Z,1795.2
2018-12-10T15:11:01.057Z,1650.7
2018-12-10T15:12:01.052Z,1513.0
2018-12-10T15:13:01.111Z,1381.9
2018-12-10T15:14:01.225Z,1259.3
2018-12-10T15:15:01.086Z,1144.8
2018-12-10T15:16:01.055Z,1038.5
2018-12-10T15:17:01.051Z,935.1
2018-12-10T15:18:01.085Z,836.5
2018-12-10T15:19:01.297Z,741.5
2018-12-10T15:20:01.097Z,653.2
2018-12-10T15:21:01.061Z,575.2
2018-12-10T15:22:01.053Z,503.3
2018-12-10T15:23:01.088Z,437.9
2018-12-10T15:24:01.292Z,391.7
2018-12-10T15:25:01.090Z,351.9
2018-12-10T15:26:01.088Z,317.9
2018-12-10T15:27:01.056Z,286.6
2018-12-10T15:28:01.088Z,255.5
2018-12-10T15:29:01.203Z,225.1
2018-12-10T15:30:01.092Z,195.2
2018-12-10T15:31:01.089Z,167.3
2018-12-10T15:32:01.057Z,143.3
2018-12-10T15:33:01.082Z,124.1
2018-12-10T15:34:01.200Z,109.0
2018-12-10T15:35:02.578Z,96.1
2018-12-10T15:36:01.092Z,84.4
2018-12-10T15:37:01.061Z,74.5
2018-12-10T15:38:01.123Z,66.4
2018-12-10T15:39:01.287Z,58.9
2018-12-10T15:40:01.092Z,52.2
2018-12-10T15:41:01.060Z,46.4
2018-12-10T15:42:01.093Z,40.6
2018-12-10T15:43:01.123Z,34.9
2018-12-10T15:44:01.233Z,30.0
2018-12-10T15:45:01.097Z,25.8
2018-12-10T15:46:01.102Z,21.7
2018-12-10T15:47:01.635Z,18.1
2018-12-10T15:48:01.068Z,15.2
2018-12-10T15:49:01.247Z,12.7
2018-12-10T15:50:01.101Z,10.8
2018-12-10T15:51:01.101Z,9.2
2018-12-10T15:52:01.066Z,7.9
2018-12-10T15:53:01.095Z,6.9
2018-12-10T15:54:01.280Z,5.8
2018-12-10T15:55:01.098Z,4.8
2018-12-10T15:56:01.097Z,3.9
2018-12-10T15:57:01.064Z,3.3
2018-12-10T15:59:01.266Z,2.9
2018-12-10T16:00:01.083Z,2.5
2018-12-10T16:01:01.056Z,2.3
2018-12-10T16:02:01.095Z,2.1
2018-12-10T16:03:01.084Z,1.9
2018-12-10T16:04:02.311Z,1.7
2018-12-10T16:05:01.082Z,1.5
2018-12-10T16:06:01.087Z,1.3
2018-12-10T16:07:01.085Z,1.1
2018-12-10T16:08:01.061Z,0.9
2018-12-10T16:09:01.238Z,0.8
2018-12-10T16:10:01.079Z,0.7
2018-12-10T16:11:01.054Z,0.5
2018-12-10T16:13:01.058Z,0.4
2018-12-10T16:14:01.224Z,0.3
2018-12-10T16:15:01.113Z,0.3
2018-12-10T16:16:01.088Z,0.2
2018-12-10T16:17:02.029Z,0.1
